createdAt,value
2023-01-28T00:01:16.445Z,1.17
2023-01-28T00:03:43.021Z,1.27
2023-01-28T00:06:11.679Z,1.30
2023-01-28T00:08:38.261Z,0.90
2023-01-28T00:11:06.276Z,1.10
2023-01-28T00:13:34.154Z,1.60
2023-01-28T00:16:01.615Z,1.50
2023-01-28T00:18:29.032Z,1.30
2023-01-28T00:21:07.843Z,1.17
2023-01-28T00:23:35.427Z,1.30
2023-01-28T00:26:02.793Z,1.60
2023-01-28T00:28:29.420Z,1.10
2023-01-28T00:30:56.095Z,1.13
2023-01-28T00:33:25.937Z,1.10
2023-01-28T00:35:59.331Z,1.23
2023-01-28T00:38:25.770Z,1.30
2023-01-28T00:40:52.124Z,1.50
2023-01-28T00:43:18.546Z,1.40
2023-01-28T00:45:45.013Z,1.30
2023-01-28T00:48:11.459Z,1.43
2023-01-28T00:50:39.412Z,1.40
2023-01-28T00:53:05.785Z,1.33
2023-01-28T00:55:32.191Z,1.17
2023-01-28T00:57:58.521Z,1.27
2023-01-28T01:00:25.853Z,1.20
2023-01-28T01:02:52.333Z,1.30
2023-01-28T01:05:18.794Z,1.07
2023-01-28T01:07:45.241Z,1.37
2023-01-28T01:10:12.872Z,1.30
2023-01-28T01:12:39.450Z,1.47
2023-01-28T01:15:10.592Z,1.20
2023-01-28T01:17:41.078Z,1.63
2023-01-28T01:20:09.400Z,1.57
2023-01-28T01:22:36.600Z,1.37
2023-01-28T01:25:04.126Z,1.50
2023-01-28T01:27:31.438Z,1.20
2023-01-28T01:29:58.968Z,1.77
2023-01-28T01:32:25.777Z,1.50
2023-01-28T01:34:52.260Z,1.10
2023-01-28T01:37:18.677Z,1.77
2023-01-28T01:39:45.114Z,1.20
2023-01-28T01:42:12.858Z,1.33
2023-01-28T01:44:58.997Z,1.00
2023-01-28T01:47:36.333Z,1.03
2023-01-28T01:53:14.416Z,1.10
2023-01-28T01:55:43.058Z,1.00
2023-01-28T01:58:11.624Z,1.20
2023-01-28T02:00:39.326Z,1.47
2023-01-28T02:03:06.265Z,1.20
2023-01-28T02:05:32.786Z,1.50
2023-01-28T02:08:19.864Z,1.33
2023-01-28T02:10:47.422Z,1.23
2023-01-28T02:13:14.644Z,1.10
2023-01-28T02:15:41.263Z,1.13
2023-01-28T02:18:07.683Z,1.33
2023-01-28T02:20:49.377Z,1.37
2023-01-28T02:23:25.034Z,1.10
2023-01-28T02:25:59.686Z,1.40
2023-01-28T02:28:31.829Z,1.10
2023-01-28T02:31:07.714Z,1.40
2023-01-28T02:33:43.327Z,1.00
2023-01-28T02:36:14.551Z,1.30
2023-01-28T02:38:44.180Z,1.07
2023-01-28T02:41:12.927Z,1.13
2023-01-28T02:43:40.491Z,1.30
2023-01-28T02:46:54.612Z,1.20
2023-01-28T02:49:27.008Z,1.67
2023-01-28T02:52:11.617Z,1.40
2023-01-28T02:54:50.242Z,1.20
2023-01-28T02:57:24.816Z,1.53
2023-01-28T02:59:56.981Z,1.40
2023-01-28T03:02:27.068Z,1.30
2023-01-28T03:04:58.659Z,1.40
2023-01-28T03:07:27.159Z,1.10
2023-01-28T03:09:53.801Z,1.10
2023-01-28T03:12:40.383Z,1.00
2023-01-28T03:15:31.680Z,1.50
2023-01-28T03:18:20.318Z,1.40
2023-01-28T03:21:09.220Z,1.17
2023-01-28T03:24:06.721Z,1.23
2023-01-28T03:26:55.313Z,1.60
2023-01-28T03:29:42.065Z,1.13
2023-01-28T03:32:27.633Z,1.00
2023-01-28T03:35:13.068Z,0.93
2023-01-28T03:37:39.738Z,1.00
2023-01-28T03:40:07.279Z,1.10
2023-01-28T03:42:34.054Z,1.40
2023-01-28T03:45:01.866Z,1.40
2023-01-28T03:47:29.301Z,1.30
2023-01-28T03:49:56.453Z,1.53
2023-01-28T03:52:24.286Z,1.10
2023-01-28T03:54:52.788Z,1.40
2023-01-28T03:57:20.914Z,1.23
2023-01-28T03:59:49.820Z,1.27
2023-01-28T04:02:16.685Z,1.80
2023-01-28T04:04:43.320Z,1.50
2023-01-28T04:07:15.443Z,1.10
2023-01-28T04:09:42.209Z,1.70
2023-01-28T04:12:08.978Z,1.33
2023-01-28T04:14:35.764Z,1.50
2023-01-28T04:17:02.471Z,1.50
2023-01-28T04:19:28.902Z,5.00
2023-01-28T04:21:55.351Z,3.30
2023-01-28T04:24:22.642Z,2.10
2023-01-28T04:26:49.340Z,1.93
2023-01-28T04:29:15.759Z,2.03
2023-01-28T04:31:42.274Z,2.03
2023-01-28T04:34:09.361Z,1.70
2023-01-28T04:36:35.784Z,1.60
2023-01-28T04:39:02.203Z,2.23
2023-01-28T04:41:28.614Z,1.87
2023-01-28T04:43:55.085Z,2.00
2023-01-28T04:46:21.580Z,2.13
2023-01-28T04:48:48.012Z,2.07
2023-01-28T04:51:14.449Z,2.33
2023-01-28T04:53:40.826Z,1.70
2023-01-28T04:56:07.328Z,2.10
2023-01-28T04:58:33.767Z,2.17
2023-01-28T05:01:00.740Z,2.60
2023-01-28T05:03:27.421Z,15.10
2023-01-28T05:05:53.793Z,7.30
2023-01-28T05:08:20.216Z,2.37
2023-01-28T05:10:46.569Z,2.30
2023-01-28T05:13:13.003Z,2.40
2023-01-28T05:15:39.561Z,2.07
2023-01-28T05:18:06.092Z,2.27
2023-01-28T05:20:32.563Z,2.50
2023-01-28T05:22:59.014Z,2.23
2023-01-28T05:25:25.428Z,2.50
2023-01-28T05:27:52.102Z,2.97
2023-01-28T05:30:22.045Z,2.20
2023-01-28T05:32:48.523Z,2.20
2023-01-28T05:35:15.416Z,2.33
2023-01-28T05:37:42.051Z,2.20
2023-01-28T05:40:08.859Z,2.37
2023-01-28T05:42:35.222Z,2.63
2023-01-28T05:45:01.587Z,2.60
2023-01-28T05:47:27.984Z,2.23
2023-01-28T05:49:54.320Z,2.80
2023-01-28T05:52:20.747Z,2.43
2023-01-28T05:54:47.244Z,2.63
2023-01-28T05:57:13.724Z,2.80
2023-01-28T05:59:40.083Z,2.33
2023-01-28T06:02:06.494Z,2.60
2023-01-28T06:04:32.953Z,2.73
2023-01-28T06:06:59.308Z,2.57
2023-01-28T06:09:25.700Z,2.73
2023-01-28T06:11:52.133Z,2.50
2023-01-28T06:14:18.651Z,2.67
2023-01-28T06:16:45.089Z,2.80
2023-01-28T06:19:11.482Z,2.67
2023-01-28T06:21:38.072Z,3.33
2023-01-28T06:24:05.188Z,3.13
2023-01-28T06:26:31.615Z,3.30
2023-01-28T06:28:57.969Z,2.90
2023-01-28T06:31:24.312Z,3.40
2023-01-28T06:33:50.868Z,3.23
2023-01-28T06:36:20.047Z,3.70
2023-01-28T06:38:46.639Z,3.43
2023-01-28T06:41:13.054Z,3.57
2023-01-28T06:43:39.435Z,4.00
2023-01-28T06:46:05.787Z,4.17
2023-01-28T06:48:32.346Z,3.40
2023-01-28T06:50:58.718Z,3.90
2023-01-28T06:53:25.105Z,3.40
2023-01-28T06:55:51.499Z,3.33
2023-01-28T06:58:18.000Z,4.03
2023-01-28T07:00:44.411Z,3.97
2023-01-28T07:03:10.782Z,3.87
2023-01-28T07:05:37.226Z,3.50
2023-01-28T07:08:03.628Z,3.63
2023-01-28T07:10:30.451Z,4.63
2023-01-28T07:12:57.097Z,4.07
2023-01-28T07:15:23.582Z,4.73
2023-01-28T07:17:50.026Z,4.70
2023-01-28T07:20:17.792Z,4.60
2023-01-28T07:22:44.735Z,4.60
2023-01-28T07:25:12.044Z,5.00
2023-01-28T07:27:38.468Z,5.57
2023-01-28T07:30:05.116Z,5.90
2023-01-28T07:32:31.537Z,5.50
2023-01-28T07:34:58.777Z,17.97
2023-01-28T07:37:25.228Z,6.47
2023-01-28T07:39:52.257Z,5.90
2023-01-28T07:42:18.632Z,6.03
2023-01-28T07:44:45.076Z,6.60
2023-01-28T07:47:11.815Z,5.77
2023-01-28T07:49:39.868Z,6.00
2023-01-28T07:52:07.101Z,6.23
2023-01-28T07:54:33.587Z,6.23
2023-01-28T07:56:59.965Z,10.23
2023-01-28T07:59:26.372Z,18.63
2023-01-28T08:01:55.164Z,8.57
2023-01-28T08:04:21.878Z,6.83
2023-01-28T08:06:48.414Z,7.13
2023-01-28T08:09:14.924Z,7.13
2023-01-28T08:11:41.512Z,7.17
2023-01-28T08:14:07.944Z,6.83
2023-01-28T08:16:34.445Z,6.80
2023-01-28T08:19:00.873Z,6.87
2023-01-28T08:21:27.281Z,8.13
2023-01-28T08:23:54.677Z,7.60
2023-01-28T08:26:21.240Z,6.97
2023-01-28T08:28:49.532Z,6.97
2023-01-28T08:31:16.961Z,7.17
2023-01-28T08:33:43.381Z,7.17
2023-01-28T08:36:09.887Z,7.60
2023-01-28T08:38:36.305Z,7.43
2023-01-28T08:41:02.763Z,6.97
2023-01-28T08:43:29.171Z,7.20
2023-01-28T08:45:55.507Z,6.67
2023-01-28T08:48:21.988Z,6.37
2023-01-28T08:50:48.413Z,7.53
2023-01-28T08:53:16.093Z,6.27
2023-01-28T08:55:42.508Z,6.73
2023-01-28T08:58:12.961Z,5.70
2023-01-28T09:00:39.781Z,6.83
2023-01-28T09:03:06.682Z,6.90
2023-01-28T09:05:34.197Z,6.47
2023-01-28T09:08:04.811Z,6.93
2023-01-28T09:10:34.736Z,6.77
2023-01-28T09:13:21.540Z,6.23
2023-01-28T09:15:48.139Z,5.47
2023-01-28T09:18:14.620Z,6.20
2023-01-28T09:20:40.986Z,6.23
2023-01-28T09:23:07.432Z,6.20
2023-01-28T09:25:36.110Z,5.57
2023-01-28T09:28:03.254Z,5.20
2023-01-28T09:30:29.749Z,4.63
2023-01-28T09:32:58.199Z,5.00
2023-01-28T09:35:24.704Z,4.77
2023-01-28T09:37:52.115Z,4.70
2023-01-28T09:40:27.845Z,4.93
2023-01-28T09:43:01.771Z,4.23
2023-01-28T09:45:34.026Z,4.33
2023-01-28T09:48:01.712Z,5.10
2023-01-28T09:50:38.823Z,4.23
2023-01-28T09:53:09.002Z,3.77
2023-01-28T09:55:39.351Z,4.60
2023-01-28T09:58:23.655Z,4.20
2023-01-28T10:00:53.276Z,4.97
2023-01-28T10:03:41.139Z,4.47
2023-01-28T10:06:14.900Z,3.97
2023-01-28T10:09:05.652Z,4.70
2023-01-28T10:11:55.616Z,4.90
2023-01-28T10:14:31.387Z,5.20
2023-01-28T10:17:07.166Z,4.80
2023-01-28T10:19:37.986Z,4.77
2023-01-28T10:22:09.525Z,5.43
2023-01-28T10:24:38.353Z,5.10
2023-01-28T10:27:28.082Z,3.97
2023-01-28T10:29:55.535Z,4.37
2023-01-28T10:32:26.339Z,4.67
2023-01-28T10:34:53.110Z,5.07
2023-01-28T10:37:19.703Z,4.57
2023-01-28T10:39:46.352Z,4.10
2023-01-28T10:42:29.533Z,3.93
2023-01-28T10:45:22.044Z,3.93
2023-01-28T10:47:56.196Z,3.97
2023-01-28T10:50:23.881Z,4.77
2023-01-28T10:53:01.619Z,4.47
2023-01-28T10:55:30.289Z,4.40
2023-01-28T10:57:56.910Z,4.40
2023-01-28T11:00:25.801Z,4.87
2023-01-28T11:02:52.705Z,4.60
2023-01-28T11:05:25.824Z,4.40
2023-01-28T11:08:03.031Z,4.77
2023-01-28T11:10:32.381Z,4.70
2023-01-28T11:12:59.465Z,5.30
2023-01-28T11:15:26.336Z,5.93
2023-01-28T11:17:56.618Z,5.27
2023-01-28T11:20:25.625Z,6.40
2023-01-28T11:22:52.927Z,6.50
2023-01-28T11:25:27.994Z,6.47
2023-01-28T11:27:55.099Z,6.13
2023-01-28T11:30:26.457Z,6.60
2023-01-28T11:33:03.549Z,6.33
2023-01-28T11:35:31.089Z,9.20
2023-01-28T11:37:59.379Z,7.33
2023-01-28T11:40:26.705Z,6.00
2023-01-28T11:43:00.513Z,6.10
2023-01-28T11:45:39.888Z,6.67
2023-01-28T11:48:15.715Z,5.53
2023-01-28T11:50:42.036Z,6.40
2023-01-28T11:53:08.368Z,6.03
2023-01-28T11:55:53.398Z,6.00
2023-01-28T11:58:28.395Z,5.40
2023-01-28T12:01:12.528Z,6.87
2023-01-28T12:03:45.089Z,6.90
2023-01-28T12:06:17.570Z,7.10
2023-01-28T12:08:48.424Z,6.47
2023-01-28T12:11:20.925Z,6.50
2023-01-28T12:13:47.762Z,7.00
2023-01-28T12:16:17.310Z,7.53
2023-01-28T12:18:43.782Z,7.00
2023-01-28T12:21:21.255Z,7.53
2023-01-28T12:23:47.870Z,7.57
2023-01-28T12:26:35.731Z,7.87
2023-01-28T12:29:28.444Z,7.37
2023-01-28T12:32:08.241Z,7.80
2023-01-28T12:34:34.669Z,7.23
2023-01-28T12:37:19.339Z,7.07
2023-01-28T12:39:45.883Z,7.57
2023-01-28T12:42:15.449Z,7.80
2023-01-28T12:44:49.440Z,7.10
2023-01-28T12:47:32.354Z,6.97
2023-01-28T12:50:25.077Z,6.73
2023-01-28T12:52:57.793Z,7.40
2023-01-28T12:55:47.246Z,6.97
2023-01-28T12:58:19.022Z,7.20
2023-01-28T13:00:48.433Z,6.87
2023-01-28T13:03:30.654Z,7.10
2023-01-28T13:06:00.374Z,6.67
2023-01-28T13:08:28.054Z,7.40
2023-01-28T13:10:55.843Z,7.73
2023-01-28T13:13:31.121Z,7.60
2023-01-28T13:15:57.946Z,8.23
2023-01-28T13:18:33.424Z,7.77
2023-01-28T13:21:00.776Z,8.27
2023-01-28T13:23:38.097Z,8.37
2023-01-28T13:26:12.515Z,8.83
2023-01-28T13:28:38.960Z,9.80
2023-01-28T13:31:07.049Z,8.87
2023-01-28T13:33:37.936Z,8.27
2023-01-28T13:36:19.020Z,8.17
2023-01-28T13:38:46.010Z,8.13
2023-01-28T13:41:12.417Z,9.20
2023-01-28T13:43:40.525Z,8.53
2023-01-28T13:46:08.515Z,8.37
2023-01-28T13:48:40.866Z,9.40
2023-01-28T13:51:15.659Z,8.73
2023-01-28T13:53:45.865Z,9.17
2023-01-28T13:56:20.897Z,9.17
2023-01-28T13:59:05.694Z,9.30
2023-01-28T14:01:50.993Z,9.90
2023-01-28T14:04:17.410Z,9.47
2023-01-28T14:07:02.760Z,9.60
2023-01-28T14:09:49.428Z,10.53
2023-01-28T14:12:22.298Z,10.17
2023-01-28T14:14:48.997Z,11.73
2023-01-28T14:17:18.327Z,11.10
2023-01-28T14:19:45.333Z,10.37
2023-01-28T14:22:19.408Z,10.87
2023-01-28T14:24:46.020Z,11.37
2023-01-28T14:27:16.761Z,10.70
2023-01-28T14:30:02.044Z,10.30
2023-01-28T14:32:29.715Z,10.63
2023-01-28T14:34:58.233Z,10.60
2023-01-28T14:37:25.829Z,10.80
2023-01-28T14:39:53.414Z,10.97
2023-01-28T14:42:19.788Z,11.60
2023-01-28T14:44:46.682Z,10.57
2023-01-28T14:47:25.205Z,10.80
2023-01-28T14:50:07.580Z,11.50
2023-01-28T14:52:54.253Z,29.97
2023-01-28T14:55:35.985Z,11.83
2023-01-28T14:58:06.870Z,9.63
2023-01-28T15:00:34.189Z,10.37
2023-01-28T15:03:01.846Z,8.97
2023-01-28T15:05:29.152Z,8.90
2023-01-28T15:07:56.113Z,10.10
2023-01-28T15:10:33.036Z,10.47
2023-01-28T15:13:05.253Z,10.23
2023-01-28T15:15:35.110Z,10.07
2023-01-28T15:18:21.298Z,8.73
2023-01-28T15:20:48.541Z,11.13
2023-01-28T15:23:18.169Z,10.10
2023-01-28T15:25:45.113Z,10.37
2023-01-28T15:28:23.374Z,10.07
2023-01-28T15:30:49.875Z,10.40
2023-01-28T15:33:17.307Z,10.77
2023-01-28T15:35:51.039Z,10.83
2023-01-28T15:38:18.162Z,10.57
2023-01-28T15:40:46.667Z,10.13
2023-01-28T15:43:24.340Z,9.97
2023-01-28T15:45:56.129Z,10.63
2023-01-28T15:48:24.892Z,10.73
2023-01-28T15:51:04.845Z,10.20
2023-01-28T15:53:34.538Z,10.23
2023-01-28T15:56:05.439Z,9.77
2023-01-28T15:58:34.027Z,10.27
2023-01-28T16:01:12.034Z,10.20
2023-01-28T16:03:42.543Z,10.27
2023-01-28T16:06:17.570Z,10.80
2023-01-28T16:08:46.772Z,10.80
2023-01-28T16:11:13.607Z,11.03
2023-01-28T16:13:44.114Z,10.77
2023-01-28T16:16:11.608Z,9.83
2023-01-28T16:18:45.261Z,10.87
2023-01-28T16:21:12.783Z,9.97
2023-01-28T16:23:39.912Z,10.67
2023-01-28T16:26:23.766Z,10.57
2023-01-28T16:28:50.598Z,10.50
2023-01-28T16:31:17.541Z,10.37
2023-01-28T16:33:44.026Z,10.60
2023-01-28T16:36:11.733Z,10.17
2023-01-28T16:38:38.376Z,10.10
2023-01-28T16:41:04.891Z,9.73
2023-01-28T16:43:31.349Z,11.13
2023-01-28T16:45:57.830Z,10.20
2023-01-28T16:48:24.304Z,10.37
2023-01-28T16:50:50.713Z,10.60
2023-01-28T16:53:28.663Z,12.03
2023-01-28T16:55:55.577Z,10.03
2023-01-28T16:58:24.033Z,10.53
2023-01-28T17:00:50.445Z,10.03
2023-01-28T17:03:16.971Z,11.37
2023-01-28T17:05:43.402Z,11.13
2023-01-28T17:08:09.950Z,11.50
2023-01-28T17:10:36.551Z,11.07
2023-01-28T17:13:04.328Z,12.43
2023-01-28T17:15:30.715Z,11.87
2023-01-28T17:17:57.167Z,11.80
2023-01-28T17:20:23.644Z,12.57
2023-01-28T17:22:49.999Z,12.27
2023-01-28T17:25:17.032Z,12.33
2023-01-28T17:27:43.638Z,12.00
2023-01-28T17:30:10.579Z,11.53
2023-01-28T17:32:36.970Z,11.67
2023-01-28T17:35:03.464Z,11.40
2023-01-28T17:37:29.932Z,12.40
2023-01-28T17:39:56.378Z,11.80
2023-01-28T17:42:22.850Z,13.17
2023-01-28T17:44:49.196Z,12.50
2023-01-28T17:47:15.633Z,13.53
2023-01-28T17:49:42.063Z,12.23
2023-01-28T17:52:08.434Z,12.27
2023-01-28T17:54:35.467Z,12.83
2023-01-28T17:57:01.985Z,13.37
2023-01-28T17:59:28.493Z,13.43
2023-01-28T18:01:55.043Z,12.47
2023-01-28T18:04:21.483Z,11.80
2023-01-28T18:06:49.319Z,11.90
2023-01-28T18:09:15.808Z,13.37
2023-01-28T18:11:42.219Z,12.20
2023-01-28T18:14:08.860Z,13.67
2023-01-28T18:16:35.295Z,13.27
2023-01-28T18:19:01.703Z,12.97
2023-01-28T18:21:42.958Z,12.50
2023-01-28T18:24:17.472Z,11.87
2023-01-28T18:26:44.144Z,11.50
2023-01-28T18:29:16.622Z,12.70
2023-01-28T18:31:43.342Z,12.37
2023-01-28T18:34:09.852Z,12.83
2023-01-28T18:36:36.395Z,12.43
2023-01-28T18:39:02.815Z,12.43
2023-01-28T18:41:29.291Z,12.73
2023-01-28T18:43:55.788Z,12.20
2023-01-28T18:46:22.274Z,13.33
2023-01-28T18:48:48.734Z,12.90
2023-01-28T18:51:28.829Z,13.17
2023-01-28T18:54:00.740Z,12.97
2023-01-28T18:56:27.899Z,13.43
2023-01-28T18:58:57.908Z,12.70
2023-01-28T19:01:24.840Z,13.67
2023-01-28T19:03:51.348Z,12.63
2023-01-28T19:06:17.910Z,13.40
2023-01-28T19:08:44.352Z,13.00
2023-01-28T19:11:10.756Z,13.40
2023-01-28T19:13:37.276Z,12.57
2023-01-28T19:16:07.310Z,15.27
2023-01-28T19:18:33.734Z,13.33
2023-01-28T19:21:04.615Z,12.93
2023-01-28T19:23:38.034Z,12.83
2023-01-28T19:26:17.049Z,20.77
2023-01-28T19:28:43.439Z,13.53
2023-01-28T19:31:09.833Z,13.43
2023-01-28T19:33:36.176Z,12.77
2023-01-28T19:36:02.535Z,13.13
2023-01-28T19:38:29.100Z,13.63
2023-01-28T19:40:55.775Z,12.87
2023-01-28T19:43:22.386Z,13.97
2023-01-28T19:45:55.763Z,15.00
2023-01-28T19:48:22.256Z,13.97
2023-01-28T19:50:48.883Z,13.93
2023-01-28T19:53:17.777Z,13.30
2023-01-28T19:55:44.325Z,14.60
2023-01-28T19:58:11.709Z,15.93
2023-01-28T20:00:38.288Z,13.50
2023-01-28T20:03:08.305Z,14.17
2023-01-28T20:05:35.575Z,15.37
2023-01-28T20:08:02.136Z,14.67
2023-01-28T20:10:28.737Z,14.67
2023-01-28T20:12:55.137Z,14.30
2023-01-28T20:15:21.803Z,14.83
2023-01-28T20:17:48.256Z,15.00
2023-01-28T20:20:14.735Z,15.23
2023-01-28T20:22:41.623Z,13.93
2023-01-28T20:25:08.548Z,15.50
2023-01-28T20:27:35.058Z,14.70
2023-01-28T20:30:01.598Z,13.87
2023-01-28T20:32:28.071Z,13.70
2023-01-28T20:34:54.559Z,14.17
2023-01-28T20:37:21.080Z,14.60
2023-01-28T20:39:47.582Z,15.07
2023-01-28T20:42:14.183Z,14.60
2023-01-28T20:44:40.685Z,14.23
2023-01-28T20:47:07.133Z,14.13
2023-01-28T20:49:33.566Z,14.93
2023-01-28T20:52:00.136Z,14.70
2023-01-28T20:54:26.622Z,14.77
2023-01-28T20:56:53.134Z,12.67
2023-01-28T20:59:19.661Z,14.80
2023-01-28T21:01:46.264Z,13.63
2023-01-28T21:04:12.822Z,14.30
2023-01-28T21:06:41.965Z,14.20
2023-01-28T21:09:08.776Z,14.57
2023-01-28T21:11:35.219Z,13.40
2023-01-28T21:14:02.786Z,13.70
2023-01-28T21:16:29.382Z,13.93
2023-01-28T21:18:55.767Z,14.87
2023-01-28T21:21:25.821Z,13.63
2023-01-28T21:23:54.852Z,14.80
2023-01-28T21:26:21.817Z,13.87
2023-01-28T21:28:48.313Z,14.77
2023-01-28T21:31:16.204Z,14.60
2023-01-28T21:33:42.584Z,14.53
2023-01-28T21:36:10.234Z,13.30
2023-01-28T21:38:36.657Z,14.27
2023-01-28T21:41:04.147Z,13.17
2023-01-28T21:43:30.570Z,14.83
2023-01-28T21:45:57.732Z,13.83
2023-01-28T21:48:24.323Z,15.47
2023-01-28T21:51:09.394Z,14.87
2023-01-28T21:53:36.667Z,13.87
2023-01-28T21:56:06.424Z,15.13
2023-01-28T21:58:53.380Z,15.57
2023-01-28T22:01:19.842Z,14.83
2023-01-28T22:03:46.195Z,16.43
2023-01-28T22:06:12.538Z,14.53
2023-01-28T22:08:39.377Z,14.57
2023-01-28T22:11:07.189Z,14.30
2023-01-28T22:13:34.005Z,14.57
2023-01-28T22:16:01.017Z,14.73
2023-01-28T22:18:27.480Z,13.93
2023-01-28T22:20:57.929Z,13.60
2023-01-28T22:23:24.388Z,14.90
2023-01-28T22:25:51.045Z,15.63
2023-01-28T22:28:17.537Z,14.60
2023-01-28T22:30:43.955Z,14.37
2023-01-28T22:33:10.341Z,17.27
2023-01-28T22:35:36.814Z,15.67
2023-01-28T22:38:03.273Z,16.43
2023-01-28T22:40:29.805Z,15.77
2023-01-28T22:42:56.207Z,16.73
2023-01-28T22:45:22.594Z,14.90
2023-01-28T22:47:48.984Z,13.10
2023-01-28T22:50:15.712Z,15.50
2023-01-28T22:52:42.240Z,16.20
2023-01-28T22:55:09.053Z,15.20
2023-01-28T22:57:35.602Z,15.07
2023-01-28T23:00:02.476Z,14.83
2023-01-28T23:02:28.866Z,15.53
2023-01-28T23:04:55.259Z,15.40
2023-01-28T23:07:21.705Z,16.27
2023-01-28T23:09:48.095Z,15.57
2023-01-28T23:12:14.505Z,15.30
2023-01-28T23:15:03.112Z,15.70
2023-01-28T23:17:48.090Z,15.40
2023-01-28T23:20:34.729Z,14.63
2023-01-28T23:23:19.485Z,16.53
2023-01-28T23:25:45.952Z,14.60
2023-01-28T23:28:12.363Z,16.10
2023-01-28T23:30:38.894Z,15.93
2023-01-28T23:33:06.699Z,15.33
2023-01-28T23:35:33.162Z,15.13
2023-01-28T23:37:59.604Z,15.73
2023-01-28T23:40:27.213Z,15.10
2023-01-28T23:42:54.621Z,15.37
2023-01-28T23:45:21.603Z,15.50
2023-01-28T23:47:48.624Z,15.53
2023-01-28T23:50:15.855Z,16.53
2023-01-28T23:52:42.436Z,13.20
2023-01-28T23:55:08.894Z,16.07
2023-01-28T23:57:35.699Z,14.87
